createdAt,value
2023-06-04T00:01:17.036Z,73.40
2023-06-04T00:03:50.211Z,73.59
2023-06-04T00:06:23.344Z,73.75
2023-06-04T00:08:56.155Z,73.24
2023-06-04T00:11:30.617Z,73.62
2023-06-04T00:14:04.707Z,74.39
2023-06-04T00:16:37.961Z,73.55
2023-06-04T00:19:11.289Z,73.65
2023-06-04T00:21:43.853Z,73.64
2023-06-04T00:24:18.096Z,73.70
2023-06-04T00:26:52.294Z,73.27
2023-06-04T00:29:25.276Z,73.34
2023-06-04T00:31:57.835Z,73.15
2023-06-04T00:34:31.732Z,73.27
2023-06-04T00:37:04.508Z,73.44
2023-06-04T00:39:38.101Z,73.26
2023-06-04T00:42:12.239Z,73.50
2023-06-04T00:44:46.883Z,73.38
2023-06-04T00:47:22.237Z,74.29
2023-06-04T00:49:59.332Z,73.63
2023-06-04T00:52:32.165Z,74.32
2023-06-04T00:55:06.269Z,74.25
2023-06-04T00:57:40.646Z,74.43
2023-06-04T01:00:15.328Z,74.24
2023-06-04T01:02:52.741Z,73.55
2023-06-04T01:05:35.496Z,74.01
2023-06-04T01:08:10.430Z,73.60
2023-06-04T01:10:52.479Z,74.02
2023-06-04T01:13:27.899Z,74.44
2023-06-04T01:16:01.026Z,73.79
2023-06-04T01:18:38.851Z,75.10
2023-06-04T01:21:19.808Z,74.60
2023-06-04T01:24:00.040Z,74.05
2023-06-04T01:26:33.578Z,74.20
2023-06-04T01:29:08.835Z,74.42
2023-06-04T01:31:41.627Z,73.99
2023-06-04T01:34:14.868Z,74.16
2023-06-04T01:36:47.868Z,74.23
2023-06-04T01:39:21.073Z,74.75
2023-06-04T01:41:53.908Z,73.89
2023-06-04T01:44:28.470Z,74.64
2023-06-04T01:47:01.445Z,75.21
2023-06-04T01:49:34.128Z,74.46
2023-06-04T01:52:07.961Z,74.68
2023-06-04T01:54:42.338Z,73.91
2023-06-04T01:57:14.879Z,74.45
2023-06-04T01:59:50.014Z,74.64
2023-06-04T02:02:22.522Z,74.07
2023-06-04T02:04:56.362Z,73.91
2023-06-04T02:07:28.883Z,74.89
2023-06-04T02:10:02.590Z,74.95
2023-06-04T02:12:38.999Z,75.15
2023-06-04T02:15:13.719Z,74.39
2023-06-04T02:17:46.955Z,75.04
2023-06-04T02:20:20.232Z,74.93
2023-06-04T02:22:54.757Z,74.49
2023-06-04T02:25:27.561Z,75.06
2023-06-04T02:28:00.863Z,74.68
2023-06-04T02:30:34.857Z,74.88
2023-06-04T02:33:11.464Z,74.50
2023-06-04T02:35:44.420Z,74.81
2023-06-04T02:38:19.364Z,74.08
2023-06-04T02:40:52.047Z,74.56
2023-06-04T02:43:25.148Z,74.48
2023-06-04T02:45:59.164Z,74.16
2023-06-04T02:48:32.051Z,74.58
2023-06-04T02:51:06.354Z,74.21
2023-06-04T02:53:39.694Z,74.16
2023-06-04T02:56:13.502Z,74.42
2023-06-04T02:58:52.713Z,74.09
2023-06-04T03:01:28.112Z,73.89
2023-06-04T03:04:04.982Z,74.76
2023-06-04T03:06:41.312Z,74.66
2023-06-04T03:09:14.020Z,74.18
2023-06-04T03:11:47.249Z,73.76
2023-06-04T03:14:20.278Z,74.08
2023-06-04T03:16:56.340Z,73.95
2023-06-04T03:19:30.160Z,74.33
2023-06-04T03:22:06.793Z,73.86
2023-06-04T03:24:41.381Z,73.47
2023-06-04T03:27:14.349Z,73.01
2023-06-04T03:29:48.948Z,72.87
2023-06-04T03:32:24.885Z,72.22
2023-06-04T03:34:58.095Z,71.08
2023-06-04T03:37:31.535Z,70.74
2023-06-04T03:40:07.537Z,71.07
2023-06-04T03:42:44.302Z,70.93
2023-06-04T03:45:18.907Z,71.03
2023-06-04T03:47:53.886Z,71.29
2023-06-04T03:50:26.987Z,71.51
2023-06-04T03:53:01.594Z,71.82
2023-06-04T03:55:38.209Z,71.43
2023-06-04T03:58:15.965Z,71.79
2023-06-04T04:00:53.315Z,71.15
2023-06-04T04:03:32.661Z,71.62
2023-06-04T04:06:07.309Z,71.78
2023-06-04T04:08:43.526Z,71.27
2023-06-04T04:11:18.457Z,71.47
2023-06-04T04:13:51.966Z,71.64
2023-06-04T04:16:26.674Z,71.40
2023-06-04T04:19:01.487Z,71.12
2023-06-04T04:21:35.371Z,71.04
2023-06-04T04:24:08.471Z,71.22
2023-06-04T04:26:44.133Z,70.81
2023-06-04T04:29:17.630Z,70.23
2023-06-04T04:31:50.614Z,69.71
2023-06-04T04:34:28.265Z,69.32
2023-06-04T04:37:01.707Z,69.21
2023-06-04T04:39:34.228Z,68.81
2023-06-04T04:42:08.239Z,67.21
2023-06-04T04:44:40.862Z,65.28
2023-06-04T04:47:16.193Z,63.68
2023-06-04T04:49:51.051Z,62.89
2023-06-04T04:52:24.565Z,61.86
2023-06-04T04:54:58.794Z,60.41
2023-06-04T04:57:37.803Z,58.43
2023-06-04T05:00:12.108Z,57.35
2023-06-04T05:02:48.733Z,56.14
2023-06-04T05:05:23.244Z,55.71
2023-06-04T05:07:57.285Z,54.82
2023-06-04T05:10:37.274Z,54.02
2023-06-04T05:13:12.719Z,53.53
2023-06-04T05:15:54.772Z,52.96
2023-06-04T05:18:31.575Z,52.55
2023-06-04T05:21:10.395Z,52.05
2023-06-04T05:23:49.780Z,51.83
2023-06-04T05:26:26.976Z,51.94
2023-06-04T05:29:02.853Z,51.51
2023-06-04T05:31:41.412Z,51.76
2023-06-04T05:34:18.286Z,51.12
2023-06-04T05:36:54.996Z,50.25
2023-06-04T05:39:28.915Z,50.44
2023-06-04T05:42:07.827Z,49.89
2023-06-04T05:44:41.572Z,49.54
2023-06-04T05:47:17.987Z,50.12
2023-06-04T05:49:51.882Z,49.55
2023-06-04T05:52:26.424Z,49.89
2023-06-04T05:54:59.328Z,49.25
2023-06-04T05:57:32.524Z,48.79
2023-06-04T06:00:12.048Z,48.21
2023-06-04T06:02:50.619Z,48.08
2023-06-04T06:05:41.928Z,47.17
2023-06-04T06:08:16.844Z,46.27
2023-06-04T06:10:49.942Z,47.46
2023-06-04T06:13:23.135Z,47.28
2023-06-04T06:15:57.181Z,46.26
2023-06-04T06:18:31.396Z,46.31
2023-06-04T06:21:03.973Z,46.99
2023-06-04T06:23:38.942Z,47.08
2023-06-04T06:26:13.630Z,47.15
2023-06-04T06:28:52.666Z,47.21
2023-06-04T06:31:27.374Z,47.03
2023-06-04T06:34:00.269Z,47.50
2023-06-04T06:36:34.143Z,46.50
2023-06-04T06:39:08.261Z,45.45
2023-06-04T06:41:41.139Z,46.14
2023-06-04T06:44:18.911Z,46.28
2023-06-04T06:46:51.562Z,45.52
2023-06-04T06:49:24.431Z,45.34
2023-06-04T06:51:57.178Z,45.89
2023-06-04T06:54:31.496Z,46.92
2023-06-04T06:57:04.385Z,46.06
2023-06-04T06:59:38.162Z,46.30
2023-06-04T07:02:12.110Z,45.82
2023-06-04T07:04:44.988Z,45.13
2023-06-04T07:07:18.997Z,45.20
2023-06-04T07:09:53.946Z,45.05
2023-06-04T07:12:26.855Z,45.07
2023-06-04T07:14:59.924Z,45.14
2023-06-04T07:17:32.639Z,44.06
2023-06-04T07:20:08.104Z,42.87
2023-06-04T07:22:41.433Z,43.83
2023-06-04T07:25:16.403Z,44.44
2023-06-04T07:27:52.201Z,44.54
2023-06-04T07:30:25.093Z,45.00
2023-06-04T07:32:58.338Z,44.65
2023-06-04T07:35:30.954Z,44.13
2023-06-04T07:38:03.808Z,44.57
2023-06-04T07:40:38.158Z,45.14
2023-06-04T07:43:10.707Z,44.83
2023-06-04T07:45:44.071Z,44.82
2023-06-04T07:48:16.614Z,44.63
2023-06-04T07:50:49.598Z,44.88
2023-06-04T07:53:22.758Z,45.08
2023-06-04T07:55:58.377Z,45.76
2023-06-04T07:58:31.291Z,45.56
2023-06-04T08:01:04.674Z,46.27
2023-06-04T08:03:38.576Z,46.54
2023-06-04T08:06:12.071Z,46.94
2023-06-04T08:08:49.617Z,47.13
2023-06-04T08:11:27.117Z,46.93
2023-06-04T08:13:59.996Z,46.38
2023-06-04T08:16:34.086Z,46.26
2023-06-04T08:19:24.916Z,45.69
2023-06-04T08:22:05.495Z,45.49
2023-06-04T08:24:52.400Z,45.19
2023-06-04T08:27:47.311Z,46.14
2023-06-04T08:30:44.791Z,46.70
2023-06-04T08:33:39.124Z,46.01
2023-06-04T08:36:17.321Z,46.44
2023-06-04T08:38:54.672Z,44.95
2023-06-04T08:41:31.320Z,44.88
2023-06-04T08:44:07.705Z,45.09
2023-06-04T08:46:42.299Z,45.45
2023-06-04T08:49:16.344Z,45.14
2023-06-04T08:51:50.382Z,45.44
2023-06-04T08:54:23.210Z,43.87
2023-06-04T08:56:58.115Z,43.62
2023-06-04T08:59:32.039Z,43.42
2023-06-04T09:02:05.777Z,42.75
2023-06-04T09:04:40.749Z,42.29
2023-06-04T09:07:14.821Z,42.80
2023-06-04T09:09:52.457Z,43.05
2023-06-04T09:12:32.046Z,43.36
2023-06-04T09:15:08.919Z,43.59
2023-06-04T09:17:42.049Z,44.04
2023-06-04T09:20:21.726Z,44.52
2023-06-04T09:22:54.786Z,45.07
2023-06-04T09:25:28.670Z,44.50
2023-06-04T09:28:08.264Z,44.49
2023-06-04T09:30:52.589Z,44.98
2023-06-04T09:33:27.562Z,44.41
2023-06-04T09:36:00.808Z,44.59
2023-06-04T09:38:36.710Z,43.88
2023-06-04T09:41:15.501Z,43.13
2023-06-04T09:43:48.636Z,43.29
2023-06-04T09:46:23.703Z,43.29
2023-06-04T09:49:01.995Z,43.61
2023-06-04T09:51:35.313Z,43.26
2023-06-04T09:54:08.070Z,43.64
2023-06-04T09:56:42.194Z,43.91
2023-06-04T09:59:15.830Z,43.87
2023-06-04T10:01:54.740Z,43.79
2023-06-04T10:04:29.056Z,43.61
2023-06-04T10:07:04.079Z,43.97
2023-06-04T10:09:46.675Z,44.53
2023-06-04T10:12:26.041Z,44.77
2023-06-04T10:15:07.640Z,44.23
2023-06-04T10:17:42.328Z,45.13
2023-06-04T10:20:15.940Z,44.81
2023-06-04T10:22:49.820Z,43.59
2023-06-04T10:25:23.306Z,43.46
2023-06-04T10:27:56.648Z,43.22
2023-06-04T10:30:30.677Z,42.32
2023-06-04T10:33:05.379Z,42.81
2023-06-04T10:35:38.470Z,42.68
2023-06-04T10:38:13.437Z,42.69
2023-06-04T10:40:46.183Z,42.10
2023-06-04T10:43:20.100Z,42.80
2023-06-04T10:45:53.059Z,42.40
2023-06-04T10:48:27.694Z,42.27
2023-06-04T10:51:00.228Z,42.17
2023-06-04T10:53:38.479Z,43.41
2023-06-04T10:56:11.311Z,42.96
2023-06-04T10:58:44.312Z,43.28
2023-06-04T11:01:25.093Z,43.26
2023-06-04T11:03:59.802Z,42.76
2023-06-04T11:06:34.112Z,42.67
2023-06-04T11:09:07.450Z,43.12
2023-06-04T11:11:40.773Z,42.92
2023-06-04T11:14:19.019Z,43.13
2023-06-04T11:16:52.475Z,43.13
2023-06-04T11:19:36.728Z,43.69
2023-06-04T11:22:13.855Z,42.63
2023-06-04T11:24:46.719Z,43.10
2023-06-04T11:27:32.172Z,43.21
2023-06-04T11:30:10.362Z,42.61
2023-06-04T11:32:43.930Z,42.17
2023-06-04T11:35:17.969Z,41.81
2023-06-04T11:37:58.004Z,42.51
2023-06-04T11:40:31.838Z,43.02
2023-06-04T11:43:05.010Z,42.56
2023-06-04T11:45:38.271Z,41.86
2023-06-04T11:48:13.312Z,42.16
2023-06-04T11:50:47.553Z,41.13
2023-06-04T11:53:21.311Z,41.81
2023-06-04T11:55:53.954Z,42.63
2023-06-04T11:58:27.218Z,43.06
2023-06-04T12:01:01.084Z,42.44
2023-06-04T12:03:38.886Z,42.85
2023-06-04T12:06:17.372Z,42.63
2023-06-04T12:08:52.443Z,42.80
2023-06-04T12:11:29.851Z,42.61
2023-06-04T12:14:06.538Z,42.50
2023-06-04T12:16:39.190Z,42.27
2023-06-04T12:19:13.882Z,42.75
2023-06-04T12:21:47.754Z,42.04
2023-06-04T12:24:20.783Z,41.84
2023-06-04T12:27:03.874Z,42.35
2023-06-04T12:29:37.566Z,41.92
2023-06-04T12:32:14.813Z,41.39
2023-06-04T12:34:49.579Z,42.08
2023-06-04T12:37:26.809Z,41.88
2023-06-04T12:39:59.554Z,42.15
2023-06-04T12:42:32.678Z,42.21
2023-06-04T12:45:07.231Z,41.95
2023-06-04T12:47:41.913Z,41.79
2023-06-04T12:50:15.077Z,42.04
2023-06-04T12:52:49.692Z,41.60
2023-06-04T12:55:22.900Z,41.12
2023-06-04T12:57:55.749Z,41.17
2023-06-04T13:00:28.836Z,41.34
2023-06-04T13:03:02.061Z,41.13
2023-06-04T13:05:34.883Z,40.94
2023-06-04T13:08:09.392Z,40.94
2023-06-04T13:10:42.028Z,41.17
2023-06-04T13:13:17.179Z,41.18
2023-06-04T13:15:50.006Z,41.31
2023-06-04T13:18:23.662Z,40.97
2023-06-04T13:20:56.305Z,41.48
2023-06-04T13:23:45.560Z,41.60
2023-06-04T13:26:23.730Z,40.94
2023-06-04T13:28:56.948Z,40.88
2023-06-04T13:31:29.916Z,41.16
2023-06-04T13:34:11.956Z,40.51
2023-06-04T13:36:56.620Z,41.05
2023-06-04T13:39:30.789Z,41.18
2023-06-04T13:42:03.530Z,40.89
2023-06-04T13:44:36.476Z,41.58
2023-06-04T13:47:08.947Z,41.59
2023-06-04T13:49:41.880Z,41.54
2023-06-04T13:52:14.819Z,41.35
2023-06-04T13:54:49.599Z,41.40
2023-06-04T13:57:22.484Z,40.88
2023-06-04T13:59:55.525Z,40.63
2023-06-04T14:02:28.288Z,41.38
2023-06-04T14:05:01.779Z,41.61
2023-06-04T14:07:36.325Z,41.53
2023-06-04T14:10:11.905Z,41.47
2023-06-04T14:12:45.300Z,41.30
2023-06-04T14:15:18.741Z,41.21
2023-06-04T14:17:51.848Z,41.39
2023-06-04T14:20:24.808Z,41.60
2023-06-04T14:22:57.509Z,40.90
2023-06-04T14:25:36.980Z,41.12
2023-06-04T14:28:09.561Z,41.37
2023-06-04T14:30:42.411Z,41.19
2023-06-04T14:33:15.389Z,41.60
2023-06-04T14:35:48.386Z,41.69
2023-06-04T14:38:21.405Z,42.24
2023-06-04T14:40:57.938Z,41.58
2023-06-04T14:43:30.481Z,41.66
2023-06-04T14:46:03.894Z,41.69
2023-06-04T14:48:36.649Z,41.22
2023-06-04T14:51:10.421Z,41.73
2023-06-04T14:53:42.999Z,41.79
2023-06-04T14:56:18.985Z,41.72
2023-06-04T14:58:51.762Z,41.60
2023-06-04T15:01:25.724Z,41.86
2023-06-04T15:03:58.276Z,42.13
2023-06-04T15:06:31.813Z,42.78
2023-06-04T15:09:04.727Z,42.54
2023-06-04T15:11:39.471Z,42.20
2023-06-04T15:14:12.111Z,42.04
2023-06-04T15:16:45.442Z,41.93
2023-06-04T15:19:18.052Z,41.81
2023-06-04T15:21:50.934Z,41.79
2023-06-04T15:24:23.940Z,42.07
2023-06-04T15:26:58.756Z,42.67
2023-06-04T15:29:31.843Z,43.13
2023-06-04T15:32:05.091Z,43.21
2023-06-04T15:34:38.391Z,43.50
2023-06-04T15:37:11.238Z,43.42
2023-06-04T15:39:44.401Z,43.12
2023-06-04T15:42:18.676Z,43.02
2023-06-04T15:44:51.434Z,43.22
2023-06-04T15:47:24.941Z,43.17
2023-06-04T15:49:57.478Z,43.24
2023-06-04T15:52:30.705Z,42.92
2023-06-04T15:55:03.440Z,43.32
2023-06-04T15:57:38.002Z,42.94
2023-06-04T16:00:11.626Z,43.08
2023-06-04T16:02:44.706Z,43.21
2023-06-04T16:05:17.797Z,43.27
2023-06-04T16:07:50.958Z,43.01
2023-06-04T16:10:23.683Z,43.32
2023-06-04T16:12:58.437Z,43.27
2023-06-04T16:15:31.142Z,44.09
2023-06-04T16:18:04.388Z,44.14
2023-06-04T16:20:37.536Z,44.39
2023-06-04T16:23:10.100Z,44.54
2023-06-04T16:25:43.020Z,44.82
2023-06-04T16:28:18.919Z,44.77
2023-06-04T16:30:51.440Z,45.04
2023-06-04T16:33:24.360Z,45.13
2023-06-04T16:35:57.592Z,45.39
2023-06-04T16:38:30.079Z,46.13
2023-06-04T16:41:03.247Z,46.09
2023-06-04T16:43:37.800Z,46.53
2023-06-04T16:46:10.472Z,46.75
2023-06-04T16:48:43.025Z,46.87
2023-06-04T16:51:15.993Z,47.08
2023-06-04T16:53:48.742Z,47.44
2023-06-04T16:56:22.911Z,47.46
2023-06-04T16:58:57.740Z,47.59
2023-06-04T17:01:30.390Z,47.61
2023-06-04T17:04:03.752Z,47.81
2023-06-04T17:06:37.093Z,48.43
2023-06-04T17:09:10.486Z,48.39
2023-06-04T17:11:44.890Z,48.74
2023-06-04T17:14:19.209Z,48.97
2023-06-04T17:16:51.772Z,49.44
2023-06-04T17:19:25.211Z,49.17
2023-06-04T17:21:57.970Z,49.50
2023-06-04T17:24:31.028Z,50.06
2023-06-04T17:27:03.841Z,50.03
2023-06-04T17:29:37.968Z,50.17
2023-06-04T17:32:10.983Z,50.10
2023-06-04T17:34:43.904Z,50.51
2023-06-04T17:37:16.793Z,50.46
2023-06-04T17:39:49.844Z,51.29
2023-06-04T17:42:24.205Z,51.41
2023-06-04T17:44:58.928Z,51.35
2023-06-04T17:47:32.078Z,51.87
2023-06-04T17:50:08.281Z,52.34
2023-06-04T17:52:41.013Z,52.45
2023-06-04T17:55:14.981Z,52.72
2023-06-04T17:57:47.556Z,53.38
2023-06-04T18:00:22.402Z,53.62
2023-06-04T18:02:54.853Z,54.44
2023-06-04T18:05:28.345Z,54.54
2023-06-04T18:08:01.023Z,55.18
2023-06-04T18:10:35.015Z,54.48
2023-06-04T18:13:08.049Z,55.56
2023-06-04T18:15:42.887Z,56.53
2023-06-04T18:18:15.830Z,57.03
2023-06-04T18:20:48.904Z,57.60
2023-06-04T18:23:21.936Z,57.58
2023-06-04T18:25:54.808Z,57.89
2023-06-04T18:28:28.012Z,58.95
2023-06-04T18:31:02.041Z,59.71
2023-06-04T18:33:36.661Z,60.09
2023-06-04T18:36:09.489Z,60.12
2023-06-04T18:38:42.790Z,59.81
2023-06-04T18:41:16.299Z,60.62
2023-06-04T18:43:50.008Z,60.58
2023-06-04T18:46:24.804Z,61.83
2023-06-04T18:48:57.795Z,61.75
2023-06-04T18:51:31.258Z,61.89
2023-06-04T18:54:04.487Z,61.97
2023-06-04T18:56:37.498Z,61.61
2023-06-04T18:59:13.813Z,61.98
2023-06-04T19:01:48.636Z,62.53
2023-06-04T19:04:21.802Z,62.19
2023-06-04T19:06:54.713Z,62.33
2023-06-04T19:09:28.047Z,62.69
2023-06-04T19:12:00.905Z,62.80
2023-06-04T19:14:34.836Z,63.04
2023-06-04T19:17:09.759Z,62.85
2023-06-04T19:19:42.608Z,62.92
2023-06-04T19:22:15.612Z,63.33
2023-06-04T19:24:49.001Z,64.09
2023-06-04T19:27:22.459Z,63.96
2023-06-04T19:29:55.671Z,64.18
2023-06-04T19:32:30.096Z,64.16
2023-06-04T19:35:04.047Z,64.13
2023-06-04T19:37:37.520Z,64.46
2023-06-04T19:40:10.870Z,64.56
2023-06-04T19:42:43.792Z,64.22
2023-06-04T19:45:17.068Z,64.33
2023-06-04T19:47:51.961Z,64.53
2023-06-04T19:50:24.713Z,64.74
2023-06-04T19:52:57.950Z,64.69
2023-06-04T19:55:31.163Z,65.06
2023-06-04T19:58:04.534Z,65.41
2023-06-04T20:00:37.365Z,65.43
2023-06-04T20:03:11.645Z,65.69
2023-06-04T20:05:44.464Z,65.16
2023-06-04T20:08:18.356Z,64.94
2023-06-04T20:10:51.631Z,65.13
2023-06-04T20:13:24.832Z,65.13
2023-06-04T20:15:57.643Z,65.50
2023-06-04T20:18:34.542Z,65.81
2023-06-04T20:21:07.219Z,65.55
2023-06-04T20:23:40.439Z,65.90
2023-06-04T20:26:13.196Z,65.50
2023-06-04T20:28:45.743Z,66.09
2023-06-04T20:31:19.189Z,66.24
2023-06-04T20:33:57.036Z,66.39
2023-06-04T20:36:30.233Z,66.55
2023-06-04T20:39:04.398Z,66.49
2023-06-04T20:41:37.407Z,65.82
2023-06-04T20:44:09.958Z,66.15
2023-06-04T20:46:43.321Z,66.10
2023-06-04T20:49:17.458Z,65.88
2023-06-04T20:51:50.531Z,65.98
2023-06-04T20:54:23.475Z,66.00
2023-06-04T20:56:56.921Z,66.21
2023-06-04T20:59:31.095Z,66.57
2023-06-04T21:02:04.143Z,66.57
2023-06-04T21:04:38.564Z,66.84
2023-06-04T21:07:14.834Z,66.80
2023-06-04T21:09:47.366Z,66.87
2023-06-04T21:12:20.641Z,66.63
2023-06-04T21:14:53.149Z,66.80
2023-06-04T21:17:26.125Z,67.15
2023-06-04T21:20:00.033Z,67.19
2023-06-04T21:22:33.270Z,66.65
2023-06-04T21:25:06.938Z,67.05
2023-06-04T21:27:40.293Z,66.82
2023-06-04T21:30:13.379Z,67.05
2023-06-04T21:32:47.168Z,67.30
2023-06-04T21:35:21.446Z,67.37
2023-06-04T21:37:54.761Z,67.18
2023-06-04T21:40:27.415Z,67.33
2023-06-04T21:43:00.289Z,67.66
2023-06-04T21:45:33.604Z,67.60
2023-06-04T21:48:07.328Z,67.37
2023-06-04T21:50:41.893Z,67.25
2023-06-04T21:53:15.294Z,67.28
2023-06-04T21:55:47.942Z,66.50
2023-06-04T21:58:21.858Z,66.52
2023-06-04T22:00:54.874Z,66.57
2023-06-04T22:03:27.980Z,67.28
2023-06-04T22:06:01.959Z,67.01
2023-06-04T22:08:35.193Z,67.07
2023-06-04T22:11:07.994Z,67.36
2023-06-04T22:13:41.602Z,67.63
2023-06-04T22:16:14.304Z,67.60
2023-06-04T22:18:52.908Z,67.55
2023-06-04T22:21:28.123Z,67.57
2023-06-04T22:24:01.606Z,67.72
2023-06-04T22:26:37.931Z,67.85
2023-06-04T22:29:11.316Z,67.88
2023-06-04T22:31:44.830Z,67.83
2023-06-04T22:34:17.775Z,68.10
2023-06-04T22:36:51.988Z,68.07
2023-06-04T22:39:25.467Z,67.60
2023-06-04T22:41:58.069Z,67.80
2023-06-04T22:44:31.322Z,67.58
2023-06-04T22:47:04.129Z,67.22
2023-06-04T22:49:37.792Z,67.78
2023-06-04T22:52:11.844Z,67.45
2023-06-04T22:54:45.362Z,67.79
2023-06-04T22:57:18.309Z,68.19
2023-06-04T22:59:52.973Z,68.01
2023-06-04T23:02:25.895Z,68.10
2023-06-04T23:04:58.894Z,68.16
2023-06-04T23:07:33.164Z,68.27
2023-06-04T23:10:07.622Z,68.33
2023-06-04T23:12:40.859Z,67.73
2023-06-04T23:15:20.628Z,68.10
2023-06-04T23:17:55.256Z,68.09
2023-06-04T23:20:28.306Z,67.62
2023-06-04T23:23:02.915Z,68.12
2023-06-04T23:25:35.711Z,67.80
2023-06-04T23:28:08.747Z,67.57
2023-06-04T23:30:41.608Z,68.54
2023-06-04T23:33:14.958Z,68.37
2023-06-04T23:35:49.205Z,68.50
2023-06-04T23:41:14.061Z,67.58
2023-06-04T23:43:46.885Z,67.36
2023-06-04T23:46:20.164Z,67.38
2023-06-04T23:48:52.676Z,67.84
2023-06-04T23:51:26.591Z,67.49
2023-06-04T23:54:00.887Z,67.66
2023-06-04T23:56:34.244Z,67.74
2023-06-04T23:59:06.999Z,68.41
